Springfield, Texas
Current Conditions -  °F | °C
As of 12:55 AM on Sunday 21 Dec 2014 (Local Time) from KPSN Reporting Station
Haze Haze  
Wind Chill: 41°   Ceiling: 1900
Heat Index: 41°   Visibility: 3mi
Dew Point: 41°   Wind: 0mph
Humidity: 100%   Direction: NA
Pressure: 30.2"   Gusts: NA
Location:  31.935°N, 95.7672°W
Report Text: KPSN 210655Z AUTO 00000KT 3SM BR BKN019 05/05 A3020 RMK AO2 T00480048
Loading
Personal Weather Stations






























Interactive Weather Map New forecast layout! Learn more

10-Day Weather Forecast

Advertisements
Track Severe Weather on mobile